createdAt,value
2023-05-05T00:02:10.036Z,63.41
2023-05-05T00:04:38.926Z,63.66
2023-05-05T00:07:06.470Z,64.11
2023-05-05T00:09:34.009Z,63.76
2023-05-05T00:12:01.622Z,63.76
2023-05-05T00:14:29.155Z,63.88
2023-05-05T00:16:56.771Z,64.59
2023-05-05T00:19:24.277Z,65.41
2023-05-05T00:21:53.184Z,65.11
2023-05-05T00:24:20.658Z,64.96
2023-05-05T00:26:48.162Z,64.82
2023-05-05T00:29:15.699Z,65.36
2023-05-05T00:31:43.386Z,64.89
2023-05-05T00:34:10.998Z,64.79
2023-05-05T00:36:38.488Z,64.98
2023-05-05T00:39:07.424Z,65.31
2023-05-05T00:41:35.403Z,65.16
2023-05-05T00:44:03.351Z,65.00
2023-05-05T00:46:32.974Z,64.79
2023-05-05T00:49:01.638Z,64.89
2023-05-05T00:51:29.560Z,65.33
2023-05-05T00:53:57.229Z,65.39
2023-05-05T00:56:27.291Z,65.51
2023-05-05T00:58:55.092Z,65.69
2023-05-05T01:01:22.955Z,66.01
2023-05-05T01:03:50.723Z,65.61
2023-05-05T01:06:32.668Z,65.36
2023-05-05T01:09:09.821Z,65.68
2023-05-05T01:11:47.122Z,65.59
2023-05-05T01:14:18.024Z,65.74
2023-05-05T01:16:56.961Z,65.42
2023-05-05T01:19:49.214Z,65.86
2023-05-05T01:22:21.773Z,66.02
2023-05-05T01:25:09.698Z,65.90
2023-05-05T01:27:56.187Z,65.79
2023-05-05T01:30:51.172Z,65.77
2023-05-05T01:33:24.204Z,65.60
2023-05-05T01:35:56.224Z,65.64
2023-05-05T01:38:29.144Z,65.87
2023-05-05T01:41:02.194Z,65.87
2023-05-05T01:43:34.556Z,65.55
2023-05-05T01:46:04.672Z,65.71
2023-05-05T01:48:33.825Z,66.30
2023-05-05T01:51:02.936Z,65.96
2023-05-05T01:53:32.436Z,65.41
2023-05-05T01:56:00.763Z,65.52
2023-05-05T01:58:30.039Z,65.76
2023-05-05T02:00:58.936Z,66.08
2023-05-05T02:03:27.544Z,65.63
2023-05-05T02:05:58.085Z,65.74
2023-05-05T02:08:27.617Z,65.97
2023-05-05T02:10:56.581Z,66.22
2023-05-05T02:13:25.796Z,66.39
2023-05-05T02:15:54.326Z,66.26
2023-05-05T02:18:23.062Z,66.36
2023-05-05T02:20:50.622Z,65.91
2023-05-05T02:23:20.052Z,65.92
2023-05-05T02:25:52.906Z,65.76
2023-05-05T02:28:23.490Z,65.64
2023-05-05T02:30:57.687Z,66.01
2023-05-05T02:33:27.049Z,66.21
2023-05-05T02:35:57.257Z,65.92
2023-05-05T02:38:30.125Z,65.97
2023-05-05T02:41:00.385Z,66.27
2023-05-05T02:43:31.573Z,67.62
2023-05-05T02:45:59.461Z,67.54
2023-05-05T02:48:29.557Z,66.93
2023-05-05T02:50:57.109Z,66.93
2023-05-05T02:53:27.744Z,66.60
2023-05-05T02:55:59.610Z,66.35
2023-05-05T02:58:30.804Z,65.90
2023-05-05T03:01:09.424Z,66.34
2023-05-05T03:03:41.779Z,66.45
2023-05-05T03:06:15.217Z,66.97
2023-05-05T03:08:51.292Z,66.72
2023-05-05T03:11:24.852Z,66.72
2023-05-05T03:14:02.084Z,65.79
2023-05-05T03:16:32.071Z,66.14
2023-05-05T03:19:00.808Z,66.00
2023-05-05T03:21:28.717Z,65.88
2023-05-05T03:23:58.250Z,65.74
2023-05-05T03:26:25.768Z,65.22
2023-05-05T03:28:53.274Z,64.60
2023-05-05T03:31:21.028Z,64.61
2023-05-05T03:33:48.560Z,64.91
2023-05-05T03:36:16.059Z,65.41
2023-05-05T03:38:43.548Z,65.84
2023-05-05T03:41:12.469Z,67.24
2023-05-05T03:43:41.226Z,69.41
2023-05-05T03:46:10.218Z,68.12
2023-05-05T03:48:37.857Z,67.47
2023-05-05T03:51:05.543Z,67.17
2023-05-05T03:53:33.041Z,66.94
2023-05-05T03:56:00.616Z,66.84
2023-05-05T03:58:29.507Z,66.53
2023-05-05T04:00:56.997Z,66.92
2023-05-05T04:03:24.852Z,67.18
2023-05-05T04:05:52.565Z,67.27
2023-05-05T04:08:20.124Z,67.20
2023-05-05T04:10:47.681Z,67.43
2023-05-05T04:13:15.320Z,68.15
2023-05-05T04:15:46.849Z,65.38
2023-05-05T04:18:14.483Z,64.23
2023-05-05T04:20:42.102Z,62.00
2023-05-05T04:23:09.585Z,60.57
2023-05-05T04:25:37.163Z,59.61
2023-05-05T04:28:05.414Z,59.15
2023-05-05T04:30:32.959Z,58.67
2023-05-05T04:33:01.832Z,57.88
2023-05-05T04:35:29.355Z,57.55
2023-05-05T04:37:56.948Z,57.42
2023-05-05T04:40:26.101Z,57.31
2023-05-05T04:42:53.643Z,57.06
2023-05-05T04:45:21.179Z,56.88
2023-05-05T04:47:48.923Z,57.07
2023-05-05T04:50:17.882Z,57.08
2023-05-05T04:52:45.368Z,56.76
2023-05-05T04:55:12.907Z,56.80
2023-05-05T04:57:40.706Z,56.48
2023-05-05T05:00:09.845Z,56.60
2023-05-05T05:02:38.477Z,56.55
2023-05-05T05:05:06.897Z,56.33
2023-05-05T05:07:35.794Z,56.46
2023-05-05T05:10:03.315Z,56.31
2023-05-05T05:12:30.943Z,56.29
2023-05-05T05:14:58.457Z,56.53
2023-05-05T05:17:26.862Z,56.46
2023-05-05T05:19:56.053Z,56.47
2023-05-05T05:22:23.686Z,57.43
2023-05-05T05:24:52.780Z,59.88
2023-05-05T05:27:20.304Z,64.67
2023-05-05T05:29:47.848Z,65.15
2023-05-05T05:32:15.377Z,66.00
2023-05-05T05:34:42.936Z,67.27
2023-05-05T05:37:10.538Z,67.79
2023-05-05T05:39:38.069Z,67.69
2023-05-05T05:42:07.055Z,66.25
2023-05-05T05:44:34.622Z,65.41
2023-05-05T05:47:02.121Z,65.01
2023-05-05T05:49:29.621Z,65.04
2023-05-05T05:51:57.192Z,68.29
2023-05-05T05:54:24.783Z,69.98
2023-05-05T05:56:52.290Z,69.58
2023-05-05T05:59:21.164Z,70.04
2023-05-05T06:01:48.636Z,69.26
2023-05-05T06:04:16.207Z,68.27
2023-05-05T06:06:43.754Z,67.50
2023-05-05T06:09:11.332Z,67.83
2023-05-05T06:11:38.887Z,68.59
2023-05-05T06:14:06.390Z,68.52
2023-05-05T06:16:35.233Z,69.01
2023-05-05T06:19:02.791Z,68.63
2023-05-05T06:21:30.450Z,68.05
2023-05-05T06:23:58.037Z,67.15
2023-05-05T06:26:26.067Z,66.74
2023-05-05T06:28:53.550Z,66.04
2023-05-05T06:31:21.179Z,65.71
2023-05-05T06:33:50.028Z,66.66
2023-05-05T06:36:17.570Z,66.49
2023-05-05T06:38:45.172Z,66.08
2023-05-05T06:41:12.654Z,66.42
2023-05-05T06:43:42.879Z,65.25
2023-05-05T06:46:10.768Z,64.42
2023-05-05T06:48:38.364Z,62.87
2023-05-05T06:51:07.458Z,61.61
2023-05-05T06:53:35.045Z,61.27
2023-05-05T06:56:02.644Z,60.50
2023-05-05T06:58:30.322Z,58.93
2023-05-05T07:00:57.887Z,58.87
2023-05-05T07:03:26.167Z,58.83
2023-05-05T07:05:54.876Z,55.96
2023-05-05T07:08:23.728Z,56.85
2023-05-05T07:10:51.293Z,57.16
2023-05-05T07:13:18.904Z,56.19
2023-05-05T07:15:47.062Z,59.17
2023-05-05T07:18:14.878Z,58.67
2023-05-05T07:20:42.531Z,57.92
2023-05-05T07:23:11.145Z,57.54
2023-05-05T07:25:40.072Z,55.60
2023-05-05T07:28:07.619Z,53.72
2023-05-05T07:30:35.187Z,53.07
2023-05-05T07:33:02.858Z,52.89
2023-05-05T07:35:30.628Z,53.61
2023-05-05T07:37:58.152Z,53.87
2023-05-05T07:40:26.087Z,52.92
2023-05-05T07:42:55.108Z,53.68
2023-05-05T07:45:22.671Z,53.07
2023-05-05T07:47:50.596Z,52.50
2023-05-05T07:50:18.538Z,51.66
2023-05-05T07:52:49.849Z,51.03
2023-05-05T07:55:21.698Z,50.38
2023-05-05T07:57:49.606Z,50.87
2023-05-05T08:00:19.799Z,51.43
2023-05-05T08:02:47.896Z,51.64
2023-05-05T08:05:15.744Z,52.31
2023-05-05T08:07:43.299Z,51.96
2023-05-05T08:10:12.663Z,51.15
2023-05-05T08:12:40.790Z,50.06
2023-05-05T08:15:09.441Z,50.04
2023-05-05T08:17:49.926Z,50.82
2023-05-05T08:20:18.123Z,50.47
2023-05-05T08:22:46.251Z,49.35
2023-05-05T08:25:14.380Z,48.48
2023-05-05T08:27:43.109Z,48.50
2023-05-05T08:30:11.796Z,47.37
2023-05-05T08:32:39.423Z,48.01
2023-05-05T08:35:09.287Z,47.89
2023-05-05T08:37:37.159Z,47.33
2023-05-05T08:40:05.438Z,46.69
2023-05-05T08:42:37.756Z,47.82
2023-05-05T08:45:07.118Z,46.81
2023-05-05T08:47:35.892Z,47.25
2023-05-05T08:50:05.620Z,46.38
2023-05-05T08:52:40.391Z,45.96
2023-05-05T08:55:15.236Z,46.30
2023-05-05T08:57:51.649Z,46.27
2023-05-05T09:00:20.739Z,45.36
2023-05-05T09:02:49.049Z,44.96
2023-05-05T09:05:18.484Z,46.60
2023-05-05T09:07:47.702Z,45.93
2023-05-05T09:10:15.584Z,46.66
2023-05-05T09:12:43.508Z,46.49
2023-05-05T09:15:13.745Z,47.53
2023-05-05T09:17:41.856Z,46.97
2023-05-05T09:20:10.932Z,46.96
2023-05-05T09:22:39.896Z,46.20
2023-05-05T09:25:12.000Z,45.70
2023-05-05T09:27:41.815Z,45.50
2023-05-05T09:30:10.858Z,45.38
2023-05-05T09:32:46.341Z,44.66
2023-05-05T09:35:14.232Z,43.32
2023-05-05T09:37:42.071Z,43.83
2023-05-05T09:40:13.716Z,43.44
2023-05-05T09:42:42.219Z,44.22
2023-05-05T09:45:27.239Z,44.25
2023-05-05T09:47:59.198Z,43.91
2023-05-05T09:50:30.288Z,43.58
2023-05-05T09:52:59.508Z,43.80
2023-05-05T09:55:28.703Z,44.71
2023-05-05T09:57:56.355Z,44.92
2023-05-05T10:00:38.815Z,44.44
2023-05-05T10:03:06.529Z,44.61
2023-05-05T10:05:34.286Z,44.71
2023-05-05T10:08:13.758Z,44.30
2023-05-05T10:10:48.229Z,43.87
2023-05-05T10:13:19.036Z,43.30
2023-05-05T10:15:49.076Z,44.12
2023-05-05T10:18:21.006Z,45.38
2023-05-05T10:20:52.874Z,44.23
2023-05-05T10:23:24.323Z,43.17
2023-05-05T10:25:56.568Z,43.30
2023-05-05T10:28:32.555Z,43.46
2023-05-05T10:31:04.249Z,43.15
2023-05-05T10:33:50.190Z,42.32
2023-05-05T10:36:17.973Z,42.49
2023-05-05T10:38:47.321Z,42.46
2023-05-05T10:41:17.351Z,42.66
2023-05-05T10:43:46.031Z,42.23
2023-05-05T10:46:14.088Z,43.20
2023-05-05T10:48:56.047Z,42.78
2023-05-05T10:51:39.220Z,43.90
2023-05-05T10:54:12.404Z,43.99
2023-05-05T10:56:42.169Z,43.59
2023-05-05T10:59:43.548Z,44.99
2023-05-05T11:02:25.544Z,43.89
2023-05-05T11:05:09.069Z,42.04
2023-05-05T11:07:36.691Z,42.04
2023-05-05T11:10:06.723Z,41.77
2023-05-05T11:13:18.334Z,43.22
2023-05-05T11:15:46.094Z,44.43
2023-05-05T11:18:36.381Z,43.48
2023-05-05T11:21:15.276Z,42.05
2023-05-05T11:23:44.809Z,41.44
2023-05-05T11:26:13.087Z,41.10
2023-05-05T11:29:12.256Z,40.07
2023-05-05T11:31:39.872Z,40.30
2023-05-05T11:34:31.070Z,39.54
2023-05-05T11:37:02.739Z,38.97
2023-05-05T11:39:41.215Z,39.86
2023-05-05T11:42:25.434Z,40.26
2023-05-05T11:44:55.394Z,42.37
2023-05-05T11:47:29.094Z,40.69
2023-05-05T11:49:56.994Z,41.22
2023-05-05T11:52:27.273Z,42.15
2023-05-05T11:54:54.977Z,41.36
2023-05-05T11:57:29.714Z,40.88
2023-05-05T12:00:00.988Z,40.53
2023-05-05T12:02:30.168Z,42.39
2023-05-05T12:04:59.518Z,41.87
2023-05-05T12:07:29.067Z,41.45
2023-05-05T12:09:56.761Z,42.13
2023-05-05T12:12:35.501Z,41.90
2023-05-05T12:15:05.344Z,41.64
2023-05-05T12:17:42.654Z,40.99
2023-05-05T12:20:11.466Z,40.66
2023-05-05T12:22:40.417Z,39.73
2023-05-05T12:25:09.159Z,39.50
2023-05-05T12:27:36.993Z,39.92
2023-05-05T12:30:17.732Z,39.15
2023-05-05T12:32:46.387Z,39.05
2023-05-05T12:35:15.802Z,39.71
2023-05-05T12:37:43.938Z,38.38
2023-05-05T12:40:45.033Z,38.09
2023-05-05T12:43:28.453Z,38.16
2023-05-05T12:46:08.287Z,37.95
2023-05-05T12:48:37.801Z,38.49
2023-05-05T12:51:16.620Z,38.97
2023-05-05T12:53:44.906Z,39.96
2023-05-05T12:56:32.505Z,39.19
2023-05-05T12:59:00.800Z,39.58
2023-05-05T13:01:31.175Z,37.90
2023-05-05T13:04:10.603Z,35.70
2023-05-05T13:06:38.788Z,35.73
2023-05-05T13:09:07.337Z,37.16
2023-05-05T13:11:38.745Z,35.31
2023-05-05T13:14:07.666Z,34.28
2023-05-05T13:16:36.754Z,35.83
2023-05-05T13:19:04.264Z,37.11
2023-05-05T13:21:31.811Z,36.91
2023-05-05T13:24:12.406Z,36.04
2023-05-05T13:26:46.969Z,35.05
2023-05-05T13:29:14.529Z,35.87
2023-05-05T13:31:43.710Z,36.57
2023-05-05T13:34:11.356Z,35.19
2023-05-05T13:36:38.932Z,36.89
2023-05-05T13:39:06.957Z,37.42
2023-05-05T13:41:34.505Z,35.06
2023-05-05T13:44:02.061Z,33.75
2023-05-05T13:46:29.643Z,33.81
2023-05-05T13:48:58.473Z,33.79
2023-05-05T13:51:26.089Z,35.80
2023-05-05T13:53:53.854Z,36.02
2023-05-05T13:56:23.356Z,33.69
2023-05-05T13:58:50.868Z,33.58
2023-05-05T14:01:18.541Z,32.97
2023-05-05T14:03:46.106Z,34.53
2023-05-05T14:06:14.986Z,33.87
2023-05-05T14:08:42.625Z,34.37
2023-05-05T14:11:10.122Z,35.12
2023-05-05T14:13:37.961Z,35.01
2023-05-05T14:16:06.037Z,35.83
2023-05-05T14:18:33.550Z,37.17
2023-05-05T14:21:01.080Z,37.62
2023-05-05T14:23:29.947Z,36.70
2023-05-05T14:25:57.610Z,36.89
2023-05-05T14:28:25.384Z,37.07
2023-05-05T14:30:52.986Z,38.00
2023-05-05T14:33:20.596Z,38.34
2023-05-05T14:35:48.115Z,38.35
2023-05-05T14:38:15.665Z,38.87
2023-05-05T14:40:44.631Z,38.86
2023-05-05T14:43:12.196Z,38.97
2023-05-05T14:45:39.731Z,38.96
2023-05-05T14:48:07.289Z,39.22
2023-05-05T14:50:34.768Z,39.61
2023-05-05T14:53:02.279Z,40.35
2023-05-05T14:55:29.834Z,40.97
2023-05-05T14:57:58.671Z,41.32
2023-05-05T15:00:26.759Z,41.56
2023-05-05T15:02:54.391Z,41.78
2023-05-05T15:05:21.937Z,42.27
2023-05-05T15:07:49.478Z,42.47
2023-05-05T15:10:18.175Z,43.02
2023-05-05T15:12:46.810Z,43.42
2023-05-05T15:15:15.829Z,44.60
2023-05-05T15:17:43.457Z,44.27
2023-05-05T15:20:12.062Z,44.90
2023-05-05T15:22:39.614Z,45.29
2023-05-05T15:25:12.049Z,45.78
2023-05-05T15:27:39.719Z,46.42
2023-05-05T15:30:08.246Z,48.14
2023-05-05T15:32:37.168Z,54.47
2023-05-05T15:35:05.015Z,59.85
2023-05-05T15:37:32.762Z,62.95
2023-05-05T15:40:00.423Z,64.66
2023-05-05T15:42:27.969Z,64.09
2023-05-05T15:44:55.496Z,62.54
2023-05-05T15:47:23.026Z,61.80
2023-05-05T15:49:52.034Z,62.91
2023-05-05T15:52:19.630Z,65.39
2023-05-05T15:54:47.168Z,65.05
2023-05-05T15:57:14.762Z,65.75
2023-05-05T15:59:42.273Z,65.13
2023-05-05T16:02:09.791Z,66.53
2023-05-05T16:04:37.410Z,66.65
2023-05-05T16:07:06.239Z,66.31
2023-05-05T16:09:33.903Z,66.50
2023-05-05T16:12:02.582Z,66.92
2023-05-05T16:14:31.960Z,67.33
2023-05-05T16:17:01.021Z,66.64
2023-05-05T16:19:29.220Z,66.85
2023-05-05T16:21:57.035Z,65.60
2023-05-05T16:24:25.994Z,62.32
2023-05-05T16:26:53.846Z,60.49
2023-05-05T16:29:21.362Z,60.17
2023-05-05T16:31:48.952Z,58.81
2023-05-05T16:34:16.489Z,57.57
2023-05-05T16:36:44.571Z,56.55
2023-05-05T16:39:12.532Z,56.32
2023-05-05T16:41:41.595Z,55.80
2023-05-05T16:44:09.142Z,55.73
2023-05-05T16:46:37.298Z,55.94
2023-05-05T16:49:05.097Z,55.52
2023-05-05T16:51:32.613Z,55.37
2023-05-05T16:54:00.170Z,55.55
2023-05-05T16:56:27.690Z,55.50
2023-05-05T16:58:56.539Z,55.75
2023-05-05T17:01:24.141Z,55.71
2023-05-05T17:03:51.692Z,55.67
2023-05-05T17:06:19.243Z,57.13
2023-05-05T17:08:46.764Z,57.58
2023-05-05T17:11:14.320Z,57.81
2023-05-05T17:13:41.889Z,56.67
2023-05-05T17:16:10.754Z,57.65
2023-05-05T17:18:38.350Z,58.25
2023-05-05T17:21:06.448Z,58.29
2023-05-05T17:23:34.047Z,58.18
2023-05-05T17:26:03.104Z,57.63
2023-05-05T17:28:30.629Z,57.41
2023-05-05T17:30:59.796Z,56.53
2023-05-05T17:33:28.720Z,55.72
2023-05-05T17:35:56.316Z,56.38
2023-05-05T17:38:23.918Z,55.90
2023-05-05T17:40:51.417Z,55.46
2023-05-05T17:43:18.929Z,55.41
2023-05-05T17:45:46.689Z,54.96
2023-05-05T17:48:14.340Z,54.99
2023-05-05T17:50:43.627Z,54.76
2023-05-05T17:53:11.772Z,54.51
2023-05-05T17:55:39.353Z,54.48
2023-05-05T17:58:07.033Z,54.42
2023-05-05T18:00:34.565Z,54.07
2023-05-05T18:03:02.238Z,54.03
2023-05-05T18:05:31.392Z,53.99
2023-05-05T18:08:00.459Z,54.27
2023-05-05T18:10:28.011Z,54.60
2023-05-05T18:12:55.580Z,54.64
2023-05-05T18:15:23.436Z,54.47
2023-05-05T18:17:50.958Z,55.15
2023-05-05T18:20:18.752Z,54.70
2023-05-05T18:22:46.565Z,54.71
2023-05-05T18:25:15.500Z,54.39
2023-05-05T18:27:43.801Z,54.56
2023-05-05T18:30:12.231Z,55.36
2023-05-05T18:32:39.852Z,55.46
2023-05-05T18:35:08.374Z,55.08
2023-05-05T18:37:36.117Z,54.87
2023-05-05T18:40:03.670Z,55.08
2023-05-05T18:42:32.582Z,56.56
2023-05-05T18:45:00.129Z,56.14
2023-05-05T18:47:28.501Z,57.42
2023-05-05T18:49:56.308Z,57.11
2023-05-05T18:52:24.004Z,59.39
2023-05-05T18:54:51.538Z,57.93
2023-05-05T18:57:19.117Z,57.49
2023-05-05T18:59:47.974Z,57.38
2023-05-05T19:02:16.815Z,58.07
2023-05-05T19:04:44.917Z,58.04
2023-05-05T19:07:16.334Z,58.26
2023-05-05T19:09:48.639Z,57.62
2023-05-05T19:12:16.156Z,57.90
2023-05-05T19:14:43.657Z,57.91
2023-05-05T19:17:12.607Z,57.96
2023-05-05T19:19:40.260Z,59.79
2023-05-05T19:22:07.755Z,61.37
2023-05-05T19:24:35.637Z,62.78
2023-05-05T19:27:03.820Z,63.78
2023-05-05T19:29:32.025Z,64.83
2023-05-05T19:31:59.620Z,65.04
2023-05-05T19:34:28.591Z,66.09
2023-05-05T19:36:56.209Z,63.28
2023-05-05T19:39:23.730Z,62.21
2023-05-05T19:41:51.477Z,62.57
2023-05-05T19:44:18.953Z,64.70
2023-05-05T19:46:46.492Z,65.24
2023-05-05T19:49:14.013Z,67.75
2023-05-05T19:51:43.664Z,69.90
2023-05-05T19:54:11.324Z,69.68
2023-05-05T19:56:38.881Z,68.72
2023-05-05T19:59:06.616Z,68.84
2023-05-05T20:01:34.462Z,69.06
2023-05-05T20:04:03.212Z,69.07
2023-05-05T20:06:30.774Z,69.18
2023-05-05T20:09:00.353Z,69.26
2023-05-05T20:11:27.934Z,69.06
2023-05-05T20:13:55.648Z,69.46
2023-05-05T20:16:23.308Z,69.91
2023-05-05T20:18:50.929Z,69.90
2023-05-05T20:21:18.679Z,69.85
2023-05-05T20:23:46.605Z,69.97
2023-05-05T20:26:15.608Z,69.93
2023-05-05T20:28:45.300Z,69.89
2023-05-05T20:31:14.360Z,70.37
2023-05-05T20:33:41.917Z,70.67
2023-05-05T20:36:09.438Z,70.21
2023-05-05T20:38:37.054Z,70.67
2023-05-05T20:41:04.607Z,70.72
2023-05-05T20:43:33.914Z,70.51
2023-05-05T20:46:02.559Z,70.90
2023-05-05T20:48:30.137Z,71.06
2023-05-05T20:50:58.829Z,70.96
2023-05-05T20:53:26.418Z,70.87
2023-05-05T20:55:53.953Z,71.12
2023-05-05T20:58:21.511Z,70.92
2023-05-05T21:00:50.548Z,71.38
2023-05-05T21:03:18.150Z,70.93
2023-05-05T21:05:46.104Z,70.73
2023-05-05T21:08:13.697Z,70.72
2023-05-05T21:10:41.287Z,71.27
2023-05-05T21:13:08.832Z,72.05
2023-05-05T21:15:37.977Z,71.74
2023-05-05T21:18:07.494Z,71.49
2023-05-05T21:20:35.763Z,71.48
2023-05-05T21:23:03.266Z,71.34
2023-05-05T21:25:30.913Z,71.26
2023-05-05T21:27:58.409Z,70.90
2023-05-05T21:30:26.043Z,70.95
2023-05-05T21:32:53.614Z,70.95
2023-05-05T21:35:22.637Z,71.07
2023-05-05T21:37:50.258Z,72.22
2023-05-05T21:40:18.013Z,73.74
2023-05-05T21:42:45.512Z,74.10
2023-05-05T21:45:13.087Z,73.06
2023-05-05T21:47:40.749Z,72.43
2023-05-05T21:50:09.456Z,72.46
2023-05-05T21:52:38.529Z,72.25
2023-05-05T21:55:07.065Z,72.11
2023-05-05T21:57:34.585Z,71.72
2023-05-05T22:00:02.080Z,72.43
2023-05-05T22:02:29.693Z,72.86
2023-05-05T22:04:57.332Z,72.74
2023-05-05T22:07:25.835Z,72.56
2023-05-05T22:09:54.865Z,72.70
2023-05-05T22:12:22.423Z,72.77
2023-05-05T22:14:49.950Z,72.71
2023-05-05T22:17:17.461Z,72.54
2023-05-05T22:19:45.000Z,72.55
2023-05-05T22:22:12.613Z,72.24
2023-05-05T22:24:40.203Z,72.50
2023-05-05T22:27:09.046Z,72.62
2023-05-05T22:29:36.879Z,73.07
2023-05-05T22:32:04.490Z,72.87
2023-05-05T22:34:32.036Z,72.51
2023-05-05T22:36:59.556Z,72.51
2023-05-05T22:39:27.056Z,72.69
2023-05-05T22:41:54.614Z,72.09
2023-05-05T22:44:23.446Z,72.07
2023-05-05T22:46:51.006Z,73.20
2023-05-05T22:49:18.536Z,74.24
2023-05-05T22:51:46.845Z,74.27
2023-05-05T22:54:14.397Z,73.34
2023-05-05T22:56:41.938Z,73.11
2023-05-05T22:59:09.470Z,73.59
2023-05-05T23:01:38.873Z,74.17
2023-05-05T23:04:06.620Z,74.50
2023-05-05T23:06:34.193Z,73.97
2023-05-05T23:09:01.712Z,73.77
2023-05-05T23:11:29.229Z,73.22
2023-05-05T23:13:56.819Z,72.70
2023-05-05T23:16:24.329Z,72.92
2023-05-05T23:18:53.196Z,72.57
2023-05-05T23:21:21.180Z,72.69
2023-05-05T23:23:49.060Z,72.89
2023-05-05T23:26:16.598Z,73.10
2023-05-05T23:28:44.134Z,73.00
2023-05-05T23:31:11.666Z,72.96
2023-05-05T23:33:39.232Z,72.75
2023-05-05T23:36:08.940Z,73.35
2023-05-05T23:38:36.431Z,74.10
2023-05-05T23:41:03.975Z,74.37
2023-05-05T23:43:31.524Z,75.33
2023-05-05T23:45:59.245Z,75.33
2023-05-05T23:48:27.015Z,74.19
2023-05-05T23:50:54.918Z,74.31
2023-05-05T23:53:23.733Z,73.88
2023-05-05T23:55:51.258Z,73.73
2023-05-05T23:58:18.741Z,73.24
